Time;durP1;ratioP1;P1;durP2;ratioP2;P2;SDS_P1;SDS_P2;PMS_P1;PMS_P2;Temp;Humidity;BMP_temperature;BMP_pressure;BME280_temperature;BME280_humidity;BME280_pressure;Samples;Min_cycle;Max_cycle;Signal;HPM_P1;HPM_P2
2021/01/04 00:00:17;;;;;;;1999.90;999.90;;;;;;;3.17;80.01;101176.41;15853604;28;20043;-61
2021/01/04 00:08:25;;;;;;;1999.90;999.90;;;;;;;3.11;80.29;101167.28;15873642;28;20511;-62
2021/01/04 00:16:05;;;;;;;1999.90;999.90;;;;;;;3.21;79.84;101169.25;15837325;28;20051;-63
2021/01/04 00:23:49;;;;;;;1999.90;999.90;;;;;;;3.39;79.31;101174.25;15872516;28;20043;-62
2021/01/04 00:31:27;;;;;;;1999.90;999.90;;;;;;;3.15;79.73;101154.63;15871242;28;20064;-62
2021/01/04 00:39:12;;;;;;;1999.90;999.90;;;;;;;3.30;79.61;101162.09;15870842;28;20055;-62
2021/01/04 00:46:55;;;;;;;1999.90;999.90;;;;;;;3.25;79.35;101167.59;15851924;28;20059;-60
2021/01/04 00:54:47;;;;;;;1999.90;999.90;;;;;;;3.27;79.53;101162.63;15834618;28;20064;-58
2021/01/04 01:03:03;;;;;;;1999.90;999.90;;;;;;;3.27;79.11;101162.63;15869184;28;20044;-61
2021/01/04 01:10:38;;;;;;;1999.90;999.90;;;;;;;3.08;80.08;101173.34;15833328;28;20090;-62
2021/01/04 01:18:29;;;;;;;1999.90;999.90;;;;;;;3.39;78.67;101173.41;15869003;28;20063;-60
2021/01/04 01:26:17;;;;;;;1999.90;999.90;;;;;;;3.29;79.03;101173.41;15868604;28;20455;-58
2021/01/04 01:34:19;;;;;;;1999.90;999.90;;;;;;;3.36;78.65;101174.78;15868251;28;20469;-60
2021/01/04 01:42:24;;;;;;;1999.90;999.90;;;;;;;3.25;78.37;101162.09;15849369;28;20043;-61
2021/01/04 01:50:06;;;;;;;1999.90;999.90;;;;;;;3.30;78.85;101172.28;15849703;28;20105;-62
2021/01/04 01:58:08;;;;;;;1999.90;999.90;;;;;;;3.31;79.01;101177.53;15848195;28;20055;-62
2021/01/04 02:06:05;;;;;;;1999.90;999.90;;;;;;;3.41;78.04;101177.53;15791384;28;20055;-61
2021/01/04 02:13:47;;;;;;;1999.90;999.90;;;;;;;3.06;78.84;101175.56;15846837;28;20043;-62
2021/01/04 02:21:56;;;;;;;1999.90;999.90;;;;;;;3.23;78.89;101180.00;15840814;28;20085;-61
2021/01/04 02:29:30;;;;;;;1999.90;999.90;;;;;;;3.37;78.23;101176.44;15862681;28;20050;-56
2021/01/04 02:37:04;;;;;;;1999.90;999.90;;;;;;;3.48;77.90;101180.03;15845503;28;20404;-61
2021/01/04 02:44:39;;;;;;;1999.90;999.90;;;;;;;3.19;78.65;101180.53;15862657;28;20052;-60
2021/01/04 02:52:16;;;;;;;1999.90;999.90;;;;;;;3.29;78.52;101179.75;15862931;28;20519;-60
2021/01/04 02:59:52;;;;;;;1999.90;999.90;;;;;;;3.40;77.97;101186.94;15861853;28;20478;-63
2021/01/04 03:07:28;;;;;;;1999.90;999.90;;;;;;;3.30;78.06;101180.56;15860648;28;20131;-59
2021/01/04 03:15:19;;;;;;;1999.90;999.90;;;;;;;3.34;78.21;101188.03;15861936;28;20049;-59
2021/01/04 03:22:53;;;;;;;1999.90;999.90;;;;;;;3.38;77.84;101180.03;15861884;28;20061;-60
2021/01/04 03:30:28;;;;;;;1999.90;999.90;;;;;;;3.30;78.15;101189.66;15861198;28;20496;-62
2021/01/04 03:38:00;;;;;;;1999.90;999.90;;;;;;;3.23;78.30;101189.13;15861062;28;20468;-62
2021/01/04 03:45:34;;;;;;;1999.90;999.90;;;;;;;3.22;78.69;101190.19;15843287;28;20035;-62
2021/01/04 03:53:08;;;;;;;1999.90;999.90;;;;;;;3.28;78.14;101183.59;15861052;28;20040;-60
2021/01/04 04:00:41;;;;;;;1999.90;999.90;;;;;;;3.33;77.74;101172.56;15859217;28;20059;-61
2021/01/04 04:08:14;;;;;;;1999.90;999.90;;;;;;;3.03;79.09;101173.34;15859752;28;20131;-57
2021/01/04 04:15:47;;;;;;;1999.90;999.90;;;;;;;3.36;77.97;101169.28;15859383;28;20462;-57
2021/01/04 04:23:20;;;;;;;;;;;;;;;3.47;77.97;101170.13;15859221;28;20028;-60
2021/01/04 04:30:54;;;;;;;1999.90;999.90;;;;;;;3.22;78.29;101162.63;15858483;28;19920;-58
2021/01/04 04:38:27;;;;;;;1999.90;999.90;;;;;;;3.29;78.04;101173.41;15840630;28;20044;-56
2021/01/04 04:46:03;;;;;;;1999.90;999.90;;;;;;;3.29;77.57;101174.22;15865414;28;20476;-59
2021/01/04 04:54:02;;;;;;;1999.90;999.90;;;;;;;3.28;77.67;101177.25;15869256;28;20380;-61
2021/01/04 05:01:44;;;;;;;1999.90;999.90;;;;;;;3.17;78.24;101185.50;15850113;28;20106;-56
2021/01/04 05:09:40;;;;;;;1999.90;999.90;;;;;;;3.21;78.46;101184.97;15867609;28;20040;-56
2021/01/04 05:17:59;;;;;;;1999.90;999.90;;;;;;;3.33;78.09;101183.59;15867798;28;20517;-56
2021/01/04 05:26:06;;;;;;;1999.90;999.90;;;;;;;3.33;77.95;101189.13;15867387;28;20271;-58
2021/01/04 05:34:01;;;;;;;1999.90;999.90;;;;;;;3.40;77.77;101192.44;15849765;28;20046;-61
2021/01/04 05:41:53;;;;;;;1999.90;999.90;;;;;;;3.41;77.92;101201.56;15867469;28;20130;-61
2021/01/04 05:49:33;;;;;;;1999.90;999.90;;;;;;;3.18;78.21;101203.72;15875247;28;20091;-62
2021/01/04 05:57:07;;;;;;;1999.90;999.90;;;;;;;3.19;78.33;101197.09;15865983;28;20052;-61
2021/01/04 06:04:41;;;;;;;1999.90;999.90;;;;;;;2.86;79.71;101192.88;15831081;28;20135;-60
2021/01/04 06:12:21;;;;;;;1999.90;999.90;;;;;;;3.12;78.97;101192.94;15865851;28;20044;-62
2021/01/04 06:20:01;;;;;;;1999.90;999.90;;;;;;;3.16;79.09;101194.06;15855065;28;20058;-63
2021/01/04 06:27:37;;;;;;;1999.90;999.90;;;;;;;3.05;79.20;101190.44;15863764;27;20043;-62
2021/01/04 06:35:22;;;;;;;1999.90;999.90;;;;;;;3.19;79.36;101196.28;15864241;28;20210;-61
2021/01/04 06:42:55;;;;;;;1999.90;999.90;;;;;;;3.30;78.61;101199.88;15863935;28;20068;-60
2021/01/04 06:50:36;;;;;;;1999.90;999.90;;;;;;;3.22;79.02;101201.22;15845421;28;20055;-60
2021/01/04 06:58:25;;;;;;;1999.90;999.90;;;;;;;3.05;79.30;101218.03;15863629;28;20047;-63
2021/01/04 07:06:35;;;;;;;1999.90;999.90;;;;;;;3.10;79.23;101214.44;15843603;28;20130;-60
2021/01/04 07:14:41;;;;;;;1999.90;999.90;;;;;;;2.96;79.58;101222.41;15862293;28;20043;-62
2021/01/04 07:22:24;;;;;;;1999.90;999.90;;;;;;;3.04;79.47;101223.81;15852764;28;20090;-62
2021/01/04 07:30:11;;;;;;;1999.90;999.90;;;;;;;3.22;78.15;101233.50;15843970;28;20039;-60
2021/01/04 07:37:56;;;;;;;1999.90;999.90;;;;;;;2.98;79.35;101233.97;15843741;28;20096;-61
2021/01/04 07:45:46;;;;;;;1999.90;999.90;;;;;;;3.06;78.93;101230.72;15863485;28;20097;-60
2021/01/04 07:54:09;;;;;;;1999.90;999.90;;;;;;;2.98;79.33;101241.44;15860871;28;20051;-60
2021/01/04 08:02:21;;;;;;;1999.90;999.90;;;;;;;3.14;79.12;101259.69;15778939;28;20175;-60
2021/01/04 08:10:08;;;;;;;1999.90;999.90;;;;;;;3.22;78.84;101263.84;15813082;28;20044;-59
2021/01/04 08:17:48;;;;;;;1999.90;999.90;;;;;;;3.07;79.47;101259.94;15860477;28;20412;-54
2021/01/04 08:25:36;;;;;;;1999.90;999.90;;;;;;;3.01;79.43;101261.00;15868817;28;20044;-61
2021/01/04 08:33:16;;;;;;;1999.90;999.90;;;;;;;3.27;78.51;101272.16;15868217;28;20050;-60
2021/01/04 08:40:59;;;;;;;1999.90;999.90;;;;;;;3.07;79.61;101276.47;15869066;28;20503;-60
2021/01/04 08:48:36;;;;;;;1999.90;999.90;;;;;;;3.09;79.69;101279.78;15871679;28;20399;-63
2021/01/04 08:56:26;;;;;;;1999.90;999.90;;;;;;;3.02;79.93;101276.47;15870613;28;20146;-63
2021/01/04 09:04:05;;;;;;;1999.90;999.90;;;;;;;2.85;80.47;101273.06;15869772;28;20039;-60
2021/01/04 09:11:44;;;;;;;1999.90;999.90;;;;;;;3.15;79.23;101286.16;15869813;28;20379;-63
2021/01/04 09:19:23;;;;;;;1999.90;999.90;;;;;;;3.08;80.41;101297.44;15875020;27;20096;-63
2021/01/04 09:27:00;;;;;;;1999.90;999.90;;;;;;;3.09;80.04;101295.50;15869271;27;20063;-62
2021/01/04 09:34:33;;;;;;;1999.90;999.90;;;;;;;2.90;80.60;101300.66;15868311;27;20571;-59
2021/01/04 09:42:09;;;;;;;1999.90;999.90;;;;;;;3.10;80.02;101297.16;15861623;28;20334;-61
2021/01/04 09:49:45;;;;;;;1999.90;999.90;;;;;;;3.17;80.01;101297.75;15863842;28;20040;-61
2021/01/04 09:57:20;;;;;;;1999.90;999.90;;;;;;;3.12;80.22;101293.03;15829569;28;20070;-61
2021/01/04 10:04:53;;;;;;;1999.90;999.90;;;;;;;3.00;80.61;101289.69;15845243;28;20120;-61
2021/01/04 10:12:28;;;;;;;1999.90;999.90;;;;;;;3.33;80.58;101298.63;15883806;27;20047;-59
2021/01/04 10:20:07;;;;;;;1999.90;999.90;;;;;;;2.94;81.29;101289.94;15842457;28;20132;-59
2021/01/04 10:27:41;;;;;;;1999.90;999.90;;;;;;;2.96;81.37;101282.22;15842052;28;20070;-60
2021/01/04 10:35:22;;;;;;;1999.90;999.90;;;;;;;3.20;80.63;101277.91;15832952;28;20206;-62
2021/01/04 10:43:03;;;;;;;1999.90;999.90;;;;;;;2.95;81.00;101264.03;15806397;28;20139;-62
2021/01/04 10:50:38;;;;;;;1999.90;999.90;;;;;;;3.29;80.12;101272.69;15818304;28;20047;-62
2021/01/04 10:58:17;;;;;;;1999.90;999.90;;;;;;;3.23;80.24;101262.72;15860235;28;20043;-60
2021/01/04 11:05:50;;;;;;;1999.90;999.90;;;;;;;3.09;80.21;101259.66;15859816;28;20124;-60
2021/01/04 11:13:30;;;;;;;1999.90;999.90;;;;;;;3.39;79.75;101272.72;15858944;28;20494;-60
2021/01/04 11:21:02;;;;;;;1999.90;999.90;;;;;;;3.23;79.34;101266.34;15858615;28;20159;-59
2021/01/04 11:28:36;;;;;;;1999.90;999.90;;;;;;;3.17;80.22;101264.66;15856704;28;20144;-60
2021/01/04 11:36:10;;;;;;;1999.90;999.90;;;;;;;3.18;80.23;101261.63;15859046;28;20048;-62
2021/01/04 11:43:45;;;;;;;1999.90;999.90;;;;;;;3.16;80.89;101257.50;15858542;28;20039;-62
2021/01/04 11:51:20;;;;;;;1999.90;999.90;;;;;;;3.03;80.52;101256.06;15815520;28;20564;-62
2021/01/04 11:58:53;;;;;;;1999.90;999.90;;;;;;;2.97;81.00;101246.09;15819474;28;20044;-62
2021/01/04 12:06:26;;;;;;;1999.90;999.90;;;;;;;3.11;80.43;101249.19;15868068;28;20048;-61
2021/01/04 12:13:59;;;;;;;1999.90;999.90;;;;;;;3.11;80.83;101261.03;15870578;28;20357;-59
2021/01/04 12:21:33;;;;;;;1999.90;999.90;;;;;;;3.02;81.01;101256.31;15870424;28;20497;-60
2021/01/04 12:29:06;;;;;;;1999.90;999.90;;;;;;;2.89;82.21;101254.88;15870349;27;20112;-58
2021/01/04 12:36:39;;;;;;;1999.90;999.90;;;;;;;2.99;81.42;101254.94;15869216;28;20092;-57
2021/01/04 12:44:14;;;;;;;1999.90;999.90;;;;;;;2.80;82.01;101250.97;15869903;28;20055;-60
2021/01/04 12:51:47;;;;;;;1999.90;999.90;;;;;;;2.79;82.30;101258.44;15850036;28;20067;-59
2021/01/04 12:59:23;;;;;;;1999.90;999.90;;;;;;;2.99;82.20;101251.34;15851517;28;20108;-60
2021/01/04 13:06:56;;;;;;;1999.90;999.90;;;;;;;3.05;81.45;101244.78;15850975;28;20305;-60
2021/01/04 13:14:29;;;;;;;;;;;;;;;2.97;81.47;101243.34;15870465;28;20112;-60
2021/01/04 13:22:02;;;;;;;;;;;;;;;3.27;81.21;101248.16;15869870;28;19923;-58
2021/01/04 13:29:36;;;;;;;1999.90;999.90;;;;;;;3.01;81.19;101246.38;15868620;28;19927;-60
2021/01/04 13:37:09;;;;;;;1999.90;999.90;;;;;;;3.10;80.40;101250.28;15868789;28;20074;-60
2021/01/04 13:44:42;;;;;;;1999.90;999.90;;;;;;;2.94;80.96;101252.16;15847928;27;20043;-62
2021/01/04 13:52:19;;;;;;;1999.90;999.90;;;;;;;3.28;80.04;101248.97;15866170;28;20035;-60
2021/01/04 13:59:52;;;;;;;1999.90;999.90;;;;;;;3.25;79.70;101247.59;15874498;27;20046;-59
2021/01/04 14:07:25;;;;;;;;;;;;;;;3.04;80.56;101259.66;15928787;27;20419;-60
2021/01/04 14:14:59;;;;;;;1999.90;999.90;;;;;;;3.13;80.39;101260.81;15865750;27;20335;-61
2021/01/04 14:22:33;;;;;;;1999.90;999.90;;;;;;;2.88;80.56;101250.47;15863327;27;20042;-63
2021/01/04 14:30:08;;;;;;;1999.90;999.90;;;;;;;2.89;80.37;101249.38;15843777;28;20146;-60
2021/01/04 14:37:41;;;;;;;1999.90;999.90;;;;;;;3.21;79.61;101243.69;15861984;28;20047;-61
2021/01/04 14:45:15;;;;;;;1999.90;999.90;;;;;;;3.27;79.01;101247.31;15861437;28;20381;-60
2021/01/04 14:52:47;;;;;;;1999.90;999.90;;;;;;;3.30;78.23;101244.84;15845079;28;20501;-56
2021/01/04 15:00:22;;;;;;;1999.90;999.90;;;;;;;3.14;78.79;101240.38;15844582;28;20135;-59
2021/01/04 15:07:54;;;;;;;1999.90;999.90;;;;;;;3.26;78.29;101242.91;15863362;28;20052;-58
2021/01/04 15:15:28;;;;;;;1999.90;999.90;;;;;;;3.36;78.10;101240.19;15862128;27;20036;-63
2021/01/04 15:23:00;;;;;;;;;;;;;;;3.45;77.14;101244.06;15863357;28;20355;-62
2021/01/04 15:30:34;;;;;;;1999.90;999.90;;;;;;;3.54;77.08;101247.91;15843965;28;19920;-60
2021/01/04 15:38:07;;;;;;;1999.90;999.90;;;;;;;3.27;77.97;101239.03;15844236;28;20143;-63
2021/01/04 15:45:40;;;;;;;1999.90;999.90;;;;;;;3.49;76.90;101245.16;15827095;28;20127;-62
2021/01/04 15:53:14;;;;;;;1999.90;999.90;;;;;;;3.29;77.58;101256.16;15844384;28;20116;-61
2021/01/04 16:00:47;;;;;;;1999.90;999.90;;;;;;;3.30;76.97;101258.63;15843538;28;20044;-62
2021/01/04 16:08:20;;;;;;;1999.90;999.90;;;;;;;3.27;77.45;101261.94;15826894;28;20489;-61
2021/01/04 16:15:56;;;;;;;1999.90;999.90;;;;;;;3.16;78.01;101266.59;15842577;28;20054;-57
2021/01/04 16:23:28;;;;;;;1999.90;999.90;;;;;;;3.33;77.49;101271.03;15858554;28;20194;-59
2021/01/04 16:31:03;;;;;;;;;;;;;;;3.33;77.00;101265.53;15840496;28;20044;-59
2021/01/04 16:38:35;;;;;;;1999.90;999.90;;;;;;;3.12;77.95;101267.38;15842170;27;19923;-61
2021/01/04 16:46:09;;;;;;;1999.90;999.90;;;;;;;3.43;77.38;101274.66;15854200;28;20062;-60
2021/01/04 16:53:44;;;;;;;1999.90;999.90;;;;;;;3.07;78.45;101267.38;15868600;28;20161;-58
2021/01/04 17:01:26;;;;;;;1999.90;999.90;;;;;;;3.18;77.34;101271.84;15818647;28;20085;-58
2021/01/04 17:09:00;;;;;;;1999.90;999.90;;;;;;;3.26;77.36;101282.34;15876623;27;20129;-60
2021/01/04 17:16:36;;;;;;;1999.90;999.90;;;;;;;3.16;77.87;101269.34;15850237;28;20382;-58
2021/01/04 17:24:28;;;;;;;1999.90;999.90;;;;;;;3.09;78.04;101270.69;15866918;28;20047;-53
2021/01/04 17:32:01;;;;;;;1999.90;999.90;;;;;;;3.08;78.38;101269.03;15864785;28;20488;-58
2021/01/04 17:39:36;;;;;;;1999.90;999.90;;;;;;;3.25;77.74;101272.41;15865762;28;20297;-57
2021/01/04 17:47:11;;;;;;;1999.90;999.90;;;;;;;3.09;78.43;101268.75;15849416;28;20189;-55
2021/01/04 17:54:44;;;;;;;1999.90;999.90;;;;;;;3.12;78.27;101284.75;15844162;27;20360;-60
2021/01/04 18:02:22;;;;;;;1999.90;999.90;;;;;;;3.25;77.57;101286.22;15862308;28;20047;-59
2021/01/04 18:09:57;;;;;;;1999.90;999.90;;;;;;;3.16;78.05;101288.66;15838072;28;20396;-57
2021/01/04 18:17:31;;;;;;;1999.90;999.90;;;;;;;3.23;78.07;101291.19;15822701;28;20138;-58
2021/01/04 18:25:09;;;;;;;1999.90;999.90;;;;;;;3.39;77.81;101298.38;15847071;28;20040;-60
2021/01/04 18:32:44;;;;;;;1999.90;999.90;;;;;;;3.17;77.96;101301.34;15846668;28;20043;-55
2021/01/04 18:40:17;;;;;;;1999.90;999.90;;;;;;;3.17;78.04;101308.78;15863212;28;20051;-59
2021/01/04 18:47:51;;;;;;;1999.90;999.90;;;;;;;3.04;78.28;101301.00;15862499;28;20051;-57
2021/01/04 18:55:23;;;;;;;1999.90;999.90;;;;;;;3.00;78.57;101302.63;15862741;28;20119;-57
2021/01/04 19:02:57;;;;;;;1999.90;999.90;;;;;;;3.09;78.22;101310.13;15862067;28;20043;-63
2021/01/04 19:10:30;;;;;;;1999.90;999.90;;;;;;;2.88;79.52;101305.59;15845524;28;20031;-61
2021/01/04 19:18:03;;;;;;;1999.90;999.90;;;;;;;3.05;78.73;101295.22;15862659;28;20191;-60
2021/01/04 19:25:38;;;;;;;1999.90;999.90;;;;;;;3.14;78.27;101293.63;15843922;28;20074;-63
2021/01/04 19:33:12;;;;;;;1999.90;999.90;;;;;;;2.98;78.93;101313.94;15861898;28;20139;-62
2021/01/04 19:40:44;;;;;;;1999.90;999.90;;;;;;;3.30;78.02;101300.00;15861754;28;20050;-60
2021/01/04 19:48:18;;;;;;;1999.90;999.90;;;;;;;2.97;79.08;101298.50;15845219;28;20485;-62
2021/01/04 19:55:51;;;;;;;1999.90;999.90;;;;;;;3.10;78.76;101300.75;15862037;28;20047;-62
2021/01/04 20:03:24;;;;;;;1999.90;999.90;;;;;;;3.18;78.61;101296.66;15860793;28;20143;-57
2021/01/04 20:10:57;;;;;;;;;;;;;;;3.36;77.95;101298.94;15858205;28;20131;-59
2021/01/04 20:18:30;;;;;;;1999.90;999.90;;;;;;;3.10;78.66;101299.91;15862397;28;20342;-59
2021/01/04 20:26:03;;;;;;;1999.90;999.90;;;;;;;2.92;78.73;101290.22;15872275;27;20119;-61
2021/01/04 20:33:37;;;;;;;1999.90;999.90;;;;;;;2.86;79.41;101299.53;15850179;28;20058;-61
2021/01/04 20:41:12;;;;;;;1999.90;999.90;;;;;;;3.08;78.85;101302.13;15865894;28;20501;-58
2021/01/04 20:48:46;;;;;;;1999.90;999.90;;;;;;;3.04;79.14;101309.28;15828960;28;20158;-60
2021/01/04 20:56:25;;;;;;;1999.90;999.90;;;;;;;3.05;78.76;101303.50;15855803;28;20043;-63
2021/01/04 21:04:00;;;;;;;1999.90;999.90;;;;;;;3.00;79.00;101320.00;15862740;28;20472;-59
2021/01/04 21:11:33;;;;;;;1999.90;999.90;;;;;;;3.15;78.83;101320.09;15855717;28;20044;-57
2021/01/04 21:19:07;;;;;;;1999.90;999.90;;;;;;;3.17;78.44;101308.78;15847250;28;20054;-61
2021/01/04 21:26:40;;;;;;;1999.90;999.90;;;;;;;3.01;78.88;101320.84;15869607;28;20339;-60
2021/01/04 21:34:19;;;;;;;1999.90;999.90;;;;;;;3.20;78.46;101311.00;15850609;28;20052;-60
2021/01/04 21:41:52;;;;;;;1999.90;999.90;;;;;;;3.16;78.46;101309.91;15868789;28;20865;-60
2021/01/04 21:49:25;;;;;;;1999.90;999.90;;;;;;;3.21;78.23;101307.13;15868022;28;20043;-61
2021/01/04 21:56:58;;;;;;;1999.90;999.90;;;;;;;3.44;78.39;101309.44;15866108;27;20088;-60
2021/01/04 22:04:33;;;;;;;1999.90;999.90;;;;;;;3.19;78.78;101312.09;15866669;28;20051;-58
2021/01/04 22:12:06;;;;;;;1999.90;999.90;;;;;;;3.26;78.24;101318.22;15848420;28;20447;-58
2021/01/04 22:19:40;;;;;;;1999.90;999.90;;;;;;;3.34;78.24;101319.63;15864998;28;20051;-61
2021/01/04 22:27:12;;;;;;;1999.90;999.90;;;;;;;3.25;78.48;101316.56;15845951;28;20039;-59
2021/01/04 22:34:45;;;;;;;1999.90;999.90;;;;;;;3.27;78.80;101311.59;15864268;28;20047;-58
2021/01/04 22:42:18;;;;;;;1999.90;999.90;;;;;;;3.00;79.46;101303.47;15845061;28;20127;-59
2021/01/04 22:49:53;;;;;;;1999.90;999.90;;;;;;;3.14;78.84;101312.91;15846044;28;20077;-60
2021/01/04 22:57:26;;;;;;;1999.90;999.90;;;;;;;2.74;80.54;101310.78;15862931;28;20130;-56
2021/01/04 23:04:59;;;;;;;1999.90;999.90;;;;;;;2.98;79.93;101304.84;15862896;28;20051;-61
2021/01/04 23:12:32;;;;;;;1999.90;999.90;;;;;;;3.07;79.12;101297.72;15862422;28;20039;-61
2021/01/04 23:20:09;;;;;;;1999.90;999.90;;;;;;;2.85;80.47;101298.72;15861891;28;20043;-58
2021/01/04 23:27:41;;;;;;;1999.90;999.90;;;;;;;3.03;79.78;101296.59;15861932;27;20047;-58
2021/01/04 23:35:19;;;;;;;1999.90;999.90;;;;;;;3.18;79.14;101275.41;15861025;28;20468;-58
2021/01/04 23:42:51;;;;;;;1999.90;999.90;;;;;;;3.18;79.36;101274.59;15861160;28;20047;-60
2021/01/04 23:50:26;;;;;;;1999.90;999.90;;;;;;;3.20;79.44;101269.63;15860245;28;20067;-59
2021/01/04 23:57:58;;;;;;;1999.90;999.90;;;;;;;3.16;79.73;101263.00;15860586;28;20059;-54
